createdAt,value
2019-05-28T00:00:01.801Z,1002.49
2019-05-28T00:00:51.755Z,1002.44
2019-05-28T00:01:51.808Z,1002.43
2019-05-28T00:02:51.700Z,1002.41
2019-05-28T00:03:51.670Z,1002.41
2019-05-28T00:04:51.651Z,1002.42
2019-05-28T00:05:51.614Z,1002.41
2019-05-28T00:06:51.618Z,1002.38
2019-05-28T00:07:51.568Z,1002.40
2019-05-28T00:08:51.535Z,1002.39
2019-05-28T00:09:51.503Z,1002.40
2019-05-28T00:10:51.566Z,1002.41
2019-05-28T00:11:51.489Z,1002.39
2019-05-28T00:12:51.444Z,1002.41
2019-05-28T00:13:51.427Z,1002.37
2019-05-28T00:14:51.371Z,1002.37
2019-05-28T00:15:51.349Z,1002.38
2019-05-28T00:16:51.337Z,1002.38
2019-05-28T00:17:51.283Z,1002.35
2019-05-28T00:18:51.257Z,1002.35
2019-05-28T00:19:51.230Z,1002.35
2019-05-28T00:20:51.205Z,1002.32
2019-05-28T00:21:51.201Z,1002.33
2019-05-28T00:22:51.147Z,1002.29
2019-05-28T00:23:51.159Z,1002.29
2019-05-28T00:24:51.092Z,1002.28
2019-05-28T00:25:51.065Z,1002.31
2019-05-28T00:26:51.077Z,1002.28
2019-05-28T00:27:51.012Z,1002.23
2019-05-28T00:28:50.981Z,1002.22
2019-05-28T00:29:50.961Z,1002.23
2019-05-28T00:30:50.928Z,1002.25
2019-05-28T00:31:50.923Z,1002.27
2019-05-28T00:32:50.875Z,1002.28
2019-05-28T00:33:50.857Z,1002.26
2019-05-28T00:34:50.821Z,1002.29
2019-05-28T00:35:50.788Z,1002.26
2019-05-28T00:36:50.788Z,1002.23
2019-05-28T00:37:50.731Z,1002.21
2019-05-28T00:38:50.709Z,1002.16
2019-05-28T00:39:50.682Z,1002.19
2019-05-28T00:40:50.659Z,1002.17
2019-05-28T00:41:50.649Z,1002.15
2019-05-28T00:42:50.595Z,1002.14
2019-05-28T00:43:50.565Z,1002.13
2019-05-28T00:44:50.539Z,1002.13
2019-05-28T00:45:50.513Z,1002.13
2019-05-28T00:46:50.505Z,1002.13
2019-05-28T00:47:50.469Z,1002.14
2019-05-28T00:48:50.429Z,1002.12
2019-05-28T00:49:50.404Z,1002.09
2019-05-28T00:50:50.379Z,1002.09
2019-05-28T00:51:50.364Z,1002.10
2019-05-28T00:52:50.313Z,1002.11
2019-05-28T00:53:50.287Z,1002.11
2019-05-28T00:54:50.262Z,1002.11
2019-05-28T00:55:50.229Z,1002.09
2019-05-28T00:56:50.236Z,1002.07
2019-05-28T00:57:50.172Z,1002.10
2019-05-28T00:58:50.145Z,1002.13
2019-05-28T00:59:50.117Z,1002.16
2019-05-28T01:00:50.088Z,1002.12
2019-05-28T01:01:50.078Z,1002.10
2019-05-28T01:02:50.341Z,1002.14
2019-05-28T01:03:50.007Z,1002.11
2019-05-28T01:04:50.005Z,1002.15
2019-05-28T01:05:49.950Z,1002.14
2019-05-28T01:06:49.927Z,1002.10
2019-05-28T01:07:49.913Z,1002.09
2019-05-28T01:08:49.861Z,1002.10
2019-05-28T01:09:49.835Z,1002.07
2019-05-28T01:10:49.808Z,1002.09
2019-05-28T01:11:49.780Z,1002.05
2019-05-28T01:12:49.771Z,1002.07
2019-05-28T01:13:49.721Z,1002.06
2019-05-28T01:14:49.696Z,1002.05
2019-05-28T01:15:49.673Z,1002.05
2019-05-28T01:16:49.647Z,1002.09
2019-05-28T01:17:49.632Z,1002.04
2019-05-28T01:18:49.583Z,1002.05
2019-05-28T01:19:49.552Z,1002.03
2019-05-28T01:20:49.599Z,1002.00
2019-05-28T01:21:49.498Z,1001.98
2019-05-28T01:22:49.488Z,1001.98
2019-05-28T01:23:49.439Z,1001.95
2019-05-28T01:24:49.406Z,1002.02
2019-05-28T01:25:49.381Z,1002.00
2019-05-28T01:26:49.351Z,1002.01
2019-05-28T01:27:49.348Z,1002.01
2019-05-28T01:28:49.294Z,1002.01
2019-05-28T01:29:49.267Z,1002.05
2019-05-28T01:30:56.224Z,1001.99
2019-05-28T01:31:49.213Z,1002.02
2019-05-28T01:32:49.227Z,1001.99
2019-05-28T01:33:49.154Z,1002.00
2019-05-28T01:34:49.122Z,1002.01
2019-05-28T01:35:49.091Z,1001.99
2019-05-28T01:36:49.088Z,1001.96
2019-05-28T01:37:49.072Z,1001.95
2019-05-28T01:38:49.007Z,1001.95
2019-05-28T01:39:48.979Z,1001.92
2019-05-28T01:40:48.976Z,1001.90
2019-05-28T01:41:48.919Z,1001.91
2019-05-28T01:42:48.916Z,1001.91
2019-05-28T01:43:48.862Z,1001.92
2019-05-28T01:44:48.831Z,1001.96
2019-05-28T01:45:48.805Z,1001.93
2019-05-28T01:46:48.776Z,1001.97
2019-05-28T01:47:48.827Z,1001.94
2019-05-28T01:48:48.717Z,1001.98
2019-05-28T01:49:48.686Z,1001.93
2019-05-28T01:50:48.660Z,1001.97
2019-05-28T01:51:48.633Z,1001.97
2019-05-28T01:52:48.625Z,1001.94
2019-05-28T01:53:48.579Z,1001.93
2019-05-28T01:54:48.548Z,1001.97
2019-05-28T01:55:48.516Z,1001.95
2019-05-28T01:56:48.488Z,1001.92
2019-05-28T01:57:48.480Z,1002.00
2019-05-28T01:58:48.429Z,1002.01
2019-05-28T01:59:48.414Z,1001.99
2019-05-28T02:00:48.370Z,1002.04
2019-05-28T02:01:48.347Z,1002.03
2019-05-28T02:02:48.342Z,1002.00
2019-05-28T02:03:48.286Z,1002.01
2019-05-28T02:04:48.277Z,1001.99
2019-05-28T02:05:48.228Z,1002.03
2019-05-28T02:06:48.202Z,1002.02
2019-05-28T02:07:48.193Z,1002.06
2019-05-28T02:08:48.146Z,1001.99
2019-05-28T02:09:48.115Z,1002.06
2019-05-28T02:10:48.089Z,1002.10
2019-05-28T02:11:48.058Z,1002.09
2019-05-28T02:12:48.057Z,1002.12
2019-05-28T02:13:47.999Z,1002.10
2019-05-28T02:14:47.974Z,1002.10
2019-05-28T02:15:47.942Z,1002.07
2019-05-28T02:16:47.910Z,1002.11
2019-05-28T02:17:47.882Z,1002.10
2019-05-28T02:18:47.878Z,1002.07
2019-05-28T02:19:47.829Z,1002.04
2019-05-28T02:20:47.799Z,1002.10
2019-05-28T02:21:47.776Z,1002.07
2019-05-28T02:22:47.748Z,1002.09
2019-05-28T02:23:47.734Z,1002.07
2019-05-28T02:24:47.688Z,1002.05
2019-05-28T02:25:47.654Z,1002.04
2019-05-28T02:26:47.623Z,1002.06
2019-05-28T02:27:47.596Z,1002.01
2019-05-28T02:28:47.599Z,1002.06
2019-05-28T02:29:47.539Z,1002.02
2019-05-28T02:30:47.520Z,1002.03
2019-05-28T02:31:47.479Z,1002.01
2019-05-28T02:32:47.456Z,1002.03
2019-05-28T02:33:47.446Z,1002.02
2019-05-28T02:34:47.393Z,1002.01
2019-05-28T02:35:47.368Z,1001.99
2019-05-28T02:36:47.344Z,1001.99
2019-05-28T02:37:47.309Z,1001.97
2019-05-28T02:38:47.302Z,1001.97
2019-05-28T02:39:47.251Z,1001.97
2019-05-28T02:40:47.224Z,1001.98
2019-05-28T02:41:47.193Z,1002.02
2019-05-28T02:42:47.165Z,1002.00
2019-05-28T02:43:47.167Z,1002.00
2019-05-28T02:44:47.116Z,1002.05
2019-05-28T02:45:47.082Z,1002.00
2019-05-28T02:46:47.050Z,1002.00
2019-05-28T02:47:47.042Z,1002.01
2019-05-28T02:48:47.017Z,1001.98
2019-05-28T02:49:46.962Z,1002.00
2019-05-28T02:50:47.012Z,1001.99
2019-05-28T02:51:46.910Z,1001.98
2019-05-28T02:52:47.798Z,1002.00
2019-05-28T02:53:46.873Z,1002.01
2019-05-28T02:54:46.825Z,1001.99
2019-05-28T02:55:46.791Z,1002.00
2019-05-28T02:56:46.766Z,1002.01
2019-05-28T02:57:46.735Z,1002.01
2019-05-28T02:58:46.729Z,1002.01
2019-05-28T02:59:46.674Z,1002.00
2019-05-28T03:00:46.646Z,1002.02
2019-05-28T03:01:46.617Z,1002.05
2019-05-28T03:02:46.680Z,1002.07
2019-05-28T03:03:46.584Z,1002.07
2019-05-28T03:04:46.544Z,1002.10
2019-05-28T03:05:46.501Z,1002.07
2019-05-28T03:06:46.477Z,1002.05
2019-05-28T03:07:46.443Z,1002.07
2019-05-28T03:08:46.450Z,1002.05
2019-05-28T03:09:46.387Z,1002.06
2019-05-28T03:11:02.183Z,1002.05
2019-05-28T03:11:46.342Z,1002.11
2019-05-28T03:12:46.339Z,1002.10
2019-05-28T03:13:46.288Z,1002.09
2019-05-28T03:14:46.361Z,1002.10
2019-05-28T03:15:46.219Z,1002.07
2019-05-28T03:16:46.190Z,1002.07
2019-05-28T03:17:46.169Z,1002.05
2019-05-28T03:18:46.131Z,1002.00
2019-05-28T03:19:46.129Z,1002.02
2019-05-28T03:20:46.074Z,1002.00
2019-05-28T03:21:46.045Z,1002.00
2019-05-28T03:22:46.021Z,1001.98
2019-05-28T03:23:45.994Z,1001.99
2019-05-28T03:24:46.027Z,1002.00
2019-05-28T03:25:45.931Z,1002.06
2019-05-28T03:26:45.903Z,1002.03
2019-05-28T03:27:45.875Z,1002.08
2019-05-28T03:28:45.849Z,1002.04
2019-05-28T03:29:45.842Z,1001.99
2019-05-28T03:30:45.795Z,1002.00
2019-05-28T03:32:05.985Z,1002.00
2019-05-28T03:32:45.744Z,1001.99
2019-05-28T03:33:45.723Z,1002.00
2019-05-28T03:34:45.714Z,1001.96
2019-05-28T03:35:45.659Z,1001.97
2019-05-28T03:36:45.625Z,1001.97
2019-05-28T03:37:45.599Z,1002.00
2019-05-28T03:38:45.573Z,1001.97
2019-05-28T03:39:45.564Z,1001.95
2019-05-28T03:40:45.514Z,1001.93
2019-05-28T03:41:45.489Z,1001.90
2019-05-28T03:42:45.459Z,1001.91
2019-05-28T03:43:45.428Z,1001.91
2019-05-28T03:44:45.424Z,1001.93
2019-05-28T03:45:45.381Z,1001.89
2019-05-28T03:46:45.351Z,1001.91
2019-05-28T03:47:45.320Z,1001.87
2019-05-28T03:48:45.290Z,1001.88
2019-05-28T03:49:45.285Z,1001.86
2019-05-28T03:50:45.246Z,1001.83
2019-05-28T03:51:45.205Z,1001.85
2019-05-28T03:52:45.180Z,1001.84
2019-05-28T03:53:45.151Z,1001.87
2019-05-28T03:54:45.146Z,1001.87
2019-05-28T03:55:45.137Z,1001.87
2019-05-28T03:56:45.064Z,1001.84
2019-05-28T03:57:45.035Z,1001.86
2019-05-28T03:58:45.010Z,1001.83
2019-05-28T03:59:45.008Z,1001.84
2019-05-28T04:00:44.959Z,1001.85
2019-05-28T04:01:44.916Z,1001.88
2019-05-28T04:02:44.887Z,1001.87
2019-05-28T04:03:44.860Z,1001.85
2019-05-28T04:04:44.860Z,1001.90
2019-05-28T04:05:44.806Z,1001.90
2019-05-28T04:06:44.778Z,1001.94
2019-05-28T04:07:44.748Z,1001.95
2019-05-28T04:08:44.723Z,1001.93
2019-05-28T04:09:44.774Z,1001.95
2019-05-28T04:10:44.664Z,1001.94
2019-05-28T04:11:45.417Z,1001.98
2019-05-28T04:12:44.608Z,1002.00
2019-05-28T04:13:44.593Z,1002.01
2019-05-28T04:14:44.589Z,1002.03
2019-05-28T04:15:44.526Z,1002.04
2019-05-28T04:16:44.499Z,1002.08
2019-05-28T04:17:44.475Z,1002.06
2019-05-28T04:18:44.444Z,1002.06
2019-05-28T04:19:44.456Z,1002.02
2019-05-28T04:20:44.411Z,1002.02
2019-05-28T04:21:44.360Z,1002.06
2019-05-28T04:22:44.338Z,1002.08
2019-05-28T04:23:44.307Z,1002.07
2019-05-28T04:24:44.288Z,1002.09
2019-05-28T04:25:44.280Z,1002.12
2019-05-28T04:26:44.225Z,1002.09
2019-05-28T04:27:44.196Z,1002.10
2019-05-28T04:28:44.164Z,1002.06
2019-05-28T04:29:44.145Z,1002.09
2019-05-28T04:30:44.137Z,1002.03
2019-05-28T04:31:44.087Z,1002.04
2019-05-28T04:32:44.057Z,1002.03
2019-05-28T04:33:44.039Z,1002.03
2019-05-28T04:34:44.019Z,1001.99
2019-05-28T04:35:43.999Z,1001.99
2019-05-28T04:36:43.952Z,1001.98
2019-05-28T04:37:43.920Z,1001.99
2019-05-28T04:38:43.893Z,1002.00
2019-05-28T04:39:43.869Z,1001.96
2019-05-28T04:40:43.874Z,1001.98
2019-05-28T04:41:43.812Z,1001.99
2019-05-28T04:42:43.790Z,1001.98
2019-05-28T04:43:43.756Z,1002.00
2019-05-28T04:44:43.731Z,1002.03
2019-05-28T04:45:43.729Z,1002.00
2019-05-28T04:46:43.677Z,1002.02
2019-05-28T04:47:43.648Z,1002.05
2019-05-28T04:48:43.625Z,1002.05
2019-05-28T04:49:43.594Z,1002.01
2019-05-28T04:50:43.602Z,1002.00
2019-05-28T04:51:43.565Z,1002.05
2019-05-28T04:52:43.520Z,1002.03
2019-05-28T04:53:43.494Z,1002.10
2019-05-28T04:54:43.462Z,1002.07
2019-05-28T04:55:43.461Z,1002.09
2019-05-28T04:56:43.407Z,1002.07
2019-05-28T04:57:43.381Z,1002.06
2019-05-28T04:58:43.354Z,1002.04
2019-05-28T04:59:43.332Z,1002.09
2019-05-28T05:00:43.343Z,1002.06
2019-05-28T05:01:43.276Z,1002.05
2019-05-28T05:02:58.137Z,1002.09
2019-05-28T05:03:43.224Z,1002.10
2019-05-28T05:04:43.202Z,1002.10
2019-05-28T05:05:43.191Z,1002.16
2019-05-28T05:06:43.140Z,1002.10
2019-05-28T05:07:43.143Z,1002.12
2019-05-28T05:08:43.088Z,1002.08
2019-05-28T05:09:43.060Z,1002.07
2019-05-28T05:10:43.069Z,1002.09
2019-05-28T05:11:43.031Z,1002.09
2019-05-28T05:12:42.983Z,1002.08
2019-05-28T05:13:42.953Z,1002.10
2019-05-28T05:14:42.938Z,1002.13
2019-05-28T05:15:42.932Z,1002.11
2019-05-28T05:16:42.873Z,1002.12
2019-05-28T05:17:42.848Z,1002.14
2019-05-28T05:18:42.817Z,1002.15
2019-05-28T05:19:42.794Z,1002.14
2019-05-28T05:20:42.793Z,1002.13
2019-05-28T05:21:42.744Z,1002.15
2019-05-28T05:22:42.714Z,1002.14
2019-05-28T05:23:42.692Z,1002.16
2019-05-28T05:24:42.682Z,1002.18
2019-05-28T05:25:42.666Z,1002.15
2019-05-28T05:26:42.610Z,1002.13
2019-05-28T05:27:42.579Z,1002.16
2019-05-28T05:28:42.552Z,1002.18
2019-05-28T05:29:42.528Z,1002.16
2019-05-28T05:30:42.526Z,1002.19
2019-05-28T05:31:42.471Z,1002.19
2019-05-28T05:32:42.449Z,1002.21
2019-05-28T05:33:42.413Z,1002.27
2019-05-28T05:34:42.416Z,1002.27
2019-05-28T05:35:42.365Z,1002.25
2019-05-28T05:36:42.361Z,1002.27
2019-05-28T05:37:42.323Z,1002.29
2019-05-28T05:38:42.282Z,1002.32
2019-05-28T05:39:42.256Z,1002.35
2019-05-28T05:40:42.237Z,1002.35
2019-05-28T05:41:42.229Z,1002.34
2019-05-28T05:42:42.179Z,1002.38
2019-05-28T05:43:42.159Z,1002.39
2019-05-28T05:44:42.122Z,1002.37
2019-05-28T05:45:42.104Z,1002.40
2019-05-28T05:46:42.095Z,1002.39
2019-05-28T05:47:42.094Z,1002.41
2019-05-28T05:48:42.040Z,1002.42
2019-05-28T05:49:41.996Z,1002.41
2019-05-28T05:50:45.114Z,1002.42
2019-05-28T05:51:41.968Z,1002.46
2019-05-28T05:52:41.918Z,1002.46
2019-05-28T05:53:41.890Z,1002.46
2019-05-28T05:54:41.875Z,1002.47
2019-05-28T05:55:41.835Z,1002.42
2019-05-28T05:56:41.848Z,1002.41
2019-05-28T05:57:41.786Z,1002.45
2019-05-28T05:58:41.760Z,1002.44
2019-05-28T05:59:41.736Z,1002.42
2019-05-28T06:00:41.713Z,1002.39
2019-05-28T06:01:41.740Z,1002.36
2019-05-28T06:02:41.671Z,1002.37
2019-05-28T06:03:42.193Z,1002.37
2019-05-28T06:04:41.604Z,1002.40
2019-05-28T06:05:41.581Z,1002.33
2019-05-28T06:06:41.583Z,1002.39
2019-05-28T06:07:41.546Z,1002.35
2019-05-28T06:08:41.507Z,1002.33
2019-05-28T06:09:41.477Z,1002.36
2019-05-28T06:10:41.453Z,1002.33
2019-05-28T06:11:41.449Z,1002.32
2019-05-28T06:12:41.446Z,1002.38
2019-05-28T06:13:41.379Z,1002.35
2019-05-28T06:14:41.358Z,1002.36
2019-05-28T06:15:41.328Z,1002.37
2019-05-28T06:16:41.321Z,1002.35
2019-05-28T06:17:41.273Z,1002.33
2019-05-28T06:18:41.291Z,1002.35
2019-05-28T06:19:41.227Z,1002.37
2019-05-28T06:20:41.218Z,1002.33
2019-05-28T06:21:41.198Z,1002.30
2019-05-28T06:22:41.152Z,1002.31
2019-05-28T06:23:41.148Z,1002.30
2019-05-28T06:24:41.100Z,1002.33
2019-05-28T06:25:41.077Z,1002.28
2019-05-28T06:26:41.073Z,1002.26
2019-05-28T06:27:41.034Z,1002.28
2019-05-28T06:28:41.007Z,1002.28
2019-05-28T06:29:40.982Z,1002.30
2019-05-28T06:30:40.958Z,1002.34
2019-05-28T06:31:40.958Z,1002.31
2019-05-28T06:32:40.908Z,1002.36
2019-05-28T06:33:55.628Z,1002.32
2019-05-28T06:34:40.864Z,1002.31
2019-05-28T06:35:40.837Z,1002.33
2019-05-28T06:36:40.835Z,1002.31
2019-05-28T06:37:40.792Z,1002.37
2019-05-28T06:38:40.769Z,1002.30
2019-05-28T06:39:40.740Z,1002.30
2019-05-28T06:40:40.727Z,1002.29
2019-05-28T06:41:40.717Z,1002.28
2019-05-28T06:42:40.669Z,1002.29
2019-05-28T06:43:40.645Z,1002.26
2019-05-28T06:44:40.643Z,1002.27
2019-05-28T06:45:40.600Z,1002.30
2019-05-28T06:46:40.609Z,1002.34
2019-05-28T06:47:44.987Z,1002.36
2019-05-28T06:48:40.525Z,1002.35
2019-05-28T06:49:40.501Z,1002.34
2019-05-28T06:50:40.479Z,1002.36
2019-05-28T06:51:40.454Z,1002.45
2019-05-28T06:52:40.456Z,1002.48
2019-05-28T06:53:40.413Z,1002.42
2019-05-28T06:54:40.973Z,1002.46
2019-05-28T06:55:40.368Z,1002.46
2019-05-28T06:56:40.339Z,1002.45
2019-05-28T06:57:40.338Z,1002.45
2019-05-28T06:58:40.643Z,1002.47
2019-05-28T06:59:40.265Z,1002.49
2019-05-28T07:00:40.255Z,1002.47
2019-05-28T07:01:40.223Z,1002.46
2019-05-28T07:02:40.223Z,1002.50
2019-05-28T07:03:40.199Z,1002.49
2019-05-28T07:04:40.153Z,1002.54
2019-05-28T07:05:40.128Z,1002.58
2019-05-28T07:06:40.103Z,1002.55
2019-05-28T07:07:40.118Z,1002.52
2019-05-28T07:08:40.064Z,1002.57
2019-05-28T07:09:40.042Z,1002.59
2019-05-28T07:10:56.633Z,1002.55
2019-05-28T07:11:39.993Z,1002.59
2019-05-28T07:12:39.986Z,1002.61
2019-05-28T07:13:39.940Z,1002.62
2019-05-28T07:14:39.918Z,1002.68
2019-05-28T07:15:39.893Z,1002.62
2019-05-28T07:16:52.712Z,1002.59
2019-05-28T07:17:39.877Z,1002.60
2019-05-28T07:18:39.829Z,1002.64
2019-05-28T07:19:39.851Z,1002.64
2019-05-28T07:20:39.787Z,1002.64
2019-05-28T07:21:39.762Z,1002.61
2019-05-28T07:22:39.769Z,1002.66
2019-05-28T07:23:39.711Z,1002.65
2019-05-28T07:24:39.683Z,1002.64
2019-05-28T07:25:39.659Z,1002.65
2019-05-28T07:26:39.639Z,1002.65
2019-05-28T07:27:39.662Z,1002.63
2019-05-28T07:28:39.659Z,1002.68
2019-05-28T07:29:39.572Z,1002.70
2019-05-28T07:30:39.546Z,1002.70
2019-05-28T07:31:39.524Z,1002.69
2019-05-28T07:32:39.975Z,1002.72
2019-05-28T07:33:39.474Z,1002.72
2019-05-28T07:34:48.448Z,1002.70
2019-05-28T07:35:45.809Z,1002.77
2019-05-28T07:36:40.387Z,1002.74
2019-05-28T07:37:39.407Z,1002.77
2019-05-28T07:38:39.403Z,1002.75
2019-05-28T07:39:39.335Z,1002.79
2019-05-28T07:40:39.340Z,1002.80
2019-05-28T07:41:39.289Z,1002.74
2019-05-28T07:42:39.286Z,1002.79
2019-05-28T07:43:39.245Z,1002.79
2019-05-28T07:44:39.217Z,1002.88
2019-05-28T07:45:39.198Z,1002.86
2019-05-28T07:46:39.187Z,1002.87
2019-05-28T07:47:39.172Z,1002.83
2019-05-28T07:48:39.129Z,1002.81
2019-05-28T07:49:39.109Z,1002.84
2019-05-28T07:50:39.097Z,1002.81
2019-05-28T07:51:39.058Z,1002.86
2019-05-28T07:52:39.059Z,1002.87
2019-05-28T07:53:40.660Z,1002.86
2019-05-28T07:54:39.650Z,1002.91
2019-05-28T07:55:38.969Z,1002.88
2019-05-28T07:56:38.943Z,1002.90
2019-05-28T07:57:38.952Z,1002.90
2019-05-28T07:58:38.940Z,1002.87
2019-05-28T07:59:38.891Z,1002.90
2019-05-28T08:00:38.852Z,1002.88
2019-05-28T08:01:38.843Z,1002.94
2019-05-28T08:02:38.832Z,1002.90
2019-05-28T08:03:38.787Z,1002.91
2019-05-28T08:04:47.185Z,1002.93
2019-05-28T08:05:38.733Z,1002.93
2019-05-28T08:06:53.658Z,1002.92
2019-05-28T08:07:38.683Z,1002.98
2019-05-28T08:08:38.700Z,1002.91
2019-05-28T08:09:38.638Z,1002.93
2019-05-28T08:10:38.625Z,1002.88
2019-05-28T08:11:38.595Z,1002.90
2019-05-28T08:12:38.569Z,1002.91
2019-05-28T08:13:41.015Z,1002.89
2019-05-28T08:14:38.645Z,1002.88
2019-05-28T08:15:38.502Z,1002.91
2019-05-28T08:16:51.921Z,1002.92
2019-05-28T08:17:38.452Z,1002.92
2019-05-28T08:18:38.458Z,1002.93
2019-05-28T08:19:38.410Z,1002.93
2019-05-28T08:20:38.381Z,1002.94
2019-05-28T08:21:38.376Z,1002.90
2019-05-28T08:22:42.700Z,1002.91
2019-05-28T08:23:38.343Z,1002.90
2019-05-28T08:24:38.292Z,1002.91
2019-05-28T08:25:46.645Z,1002.93
2019-05-28T08:26:38.252Z,1002.93
2019-05-28T08:27:38.223Z,1002.91
2019-05-28T08:28:38.217Z,1002.97
2019-05-28T08:29:38.172Z,1002.98
2019-05-28T08:30:38.171Z,1003.03
2019-05-28T08:31:38.129Z,1003.02
2019-05-28T08:32:38.157Z,1003.04
2019-05-28T08:33:38.105Z,1003.06
2019-05-28T08:34:38.066Z,1003.06
2019-05-28T08:35:38.035Z,1002.99
2019-05-28T08:36:38.020Z,1003.00
2019-05-28T08:37:37.994Z,1003.01
2019-05-28T08:38:38.006Z,1003.01
2019-05-28T08:39:37.959Z,1002.97
2019-05-28T08:40:37.928Z,1002.95
2019-05-28T08:41:37.905Z,1002.93
2019-05-28T08:42:37.880Z,1002.97
2019-05-28T08:43:37.877Z,1002.95
2019-05-28T08:44:37.830Z,1002.97
2019-05-28T08:45:37.811Z,1002.92
2019-05-28T08:46:37.787Z,1003.01
2019-05-28T08:47:37.764Z,1003.00
2019-05-28T08:48:37.759Z,1003.00
2019-05-28T08:49:37.717Z,1003.01
2019-05-28T08:50:37.694Z,1003.02
2019-05-28T08:51:37.669Z,1003.06
2019-05-28T08:52:37.649Z,1003.05
2019-05-28T08:53:37.651Z,1003.10
2019-05-28T08:54:37.602Z,1003.14
2019-05-28T08:55:37.583Z,1003.10
2019-05-28T08:56:37.572Z,1003.20
2019-05-28T08:57:38.022Z,1003.20
2019-05-28T08:58:37.549Z,1003.14
2019-05-28T08:59:37.498Z,1003.14
2019-05-28T09:00:37.503Z,1003.15
2019-05-28T09:01:37.509Z,1003.14
2019-05-28T09:02:37.425Z,1003.20
2019-05-28T09:03:37.423Z,1003.20
2019-05-28T09:04:37.385Z,1003.18
2019-05-28T09:05:37.365Z,1003.17
2019-05-28T09:06:37.335Z,1003.19
2019-05-28T09:07:37.315Z,1003.16
2019-05-28T09:08:39.831Z,1003.13
2019-05-28T09:09:37.263Z,1003.20
2019-05-28T09:10:37.263Z,1003.19
2019-05-28T09:11:37.248Z,1003.13
2019-05-28T09:12:37.205Z,1003.15
2019-05-28T09:13:37.199Z,1003.18
2019-05-28T09:14:54.881Z,1003.17
2019-05-28T09:15:37.130Z,1003.24
2019-05-28T09:16:37.104Z,1003.21
2019-05-28T09:17:37.083Z,1003.21
2019-05-28T09:18:37.065Z,1003.21
2019-05-28T09:19:37.095Z,1003.17
2019-05-28T09:20:37.022Z,1003.11
2019-05-28T09:21:37.000Z,1003.20
2019-05-28T09:22:36.979Z,1003.26
2019-05-28T09:23:36.949Z,1003.23
2019-05-28T09:24:36.963Z,1003.19
2019-05-28T09:25:36.918Z,1003.22
2019-05-28T09:26:36.894Z,1003.21
2019-05-28T09:27:36.945Z,1003.18
2019-05-28T09:28:36.846Z,1003.20
2019-05-28T09:29:36.845Z,1003.23
2019-05-28T09:30:36.795Z,1003.26
2019-05-28T09:31:36.780Z,1003.28
2019-05-28T09:32:36.782Z,1003.21
2019-05-28T09:33:36.733Z,1003.24
2019-05-28T09:34:37.130Z,1003.21
2019-05-28T09:35:44.723Z,1003.17
2019-05-28T09:36:36.668Z,1003.20
2019-05-28T09:37:36.667Z,1003.18
2019-05-28T09:38:36.627Z,1003.23
2019-05-28T09:39:36.628Z,1003.19
2019-05-28T09:40:49.364Z,1003.24
2019-05-28T09:41:36.569Z,1003.20
2019-05-28T09:42:36.540Z,1003.20
2019-05-28T09:43:36.519Z,1003.20
2019-05-28T09:44:36.528Z,1003.24
2019-05-28T09:45:36.534Z,1003.25
2019-05-28T09:46:36.448Z,1003.20
2019-05-28T09:47:36.431Z,1003.21
2019-05-28T09:48:36.406Z,1003.19
2019-05-28T09:49:36.408Z,1003.21
2019-05-28T09:50:36.365Z,1003.13
2019-05-28T09:51:36.342Z,1003.14
2019-05-28T09:52:53.050Z,1003.20
2019-05-28T09:53:36.303Z,1003.17
2019-05-28T09:54:36.346Z,1003.12
2019-05-28T09:55:36.438Z,1003.13
2019-05-28T09:56:36.243Z,1003.16
2019-05-28T09:57:46.934Z,1003.14
2019-05-28T09:58:36.190Z,1003.13
2019-05-28T09:59:41.407Z,1003.16
2019-05-28T10:00:36.142Z,1003.18
2019-05-28T10:01:37.296Z,1003.17
2019-05-28T10:02:36.101Z,1003.20
2019-05-28T10:03:36.090Z,1003.22
2019-05-28T10:04:48.359Z,1003.29
2019-05-28T10:05:37.027Z,1003.22
2019-05-28T10:06:37.437Z,1003.24
2019-05-28T10:07:36.005Z,1003.21
2019-05-28T10:08:35.986Z,1003.30
2019-05-28T10:09:35.987Z,1003.25
2019-05-28T10:10:35.936Z,1003.21
2019-05-28T10:11:35.911Z,1003.18
2019-05-28T10:12:35.892Z,1003.21
2019-05-28T10:13:40.523Z,1003.16
2019-05-28T10:14:35.885Z,1003.17
2019-05-28T10:15:36.075Z,1003.17
2019-05-28T10:16:36.934Z,1003.15
2019-05-28T10:17:35.789Z,1003.20
2019-05-28T10:18:35.769Z,1003.19
2019-05-28T10:19:35.766Z,1003.20
2019-05-28T10:20:38.210Z,1003.20
2019-05-28T10:21:35.703Z,1003.20
2019-05-28T10:22:35.683Z,1003.23
2019-05-28T10:23:35.693Z,1003.20
2019-05-28T10:24:35.672Z,1003.29
2019-05-28T10:25:35.646Z,1003.33
2019-05-28T10:26:35.598Z,1003.33
2019-05-28T10:27:35.582Z,1003.28
2019-05-28T10:28:35.564Z,1003.26
2019-05-28T10:29:35.570Z,1003.21
2019-05-28T10:30:35.516Z,1003.23
2019-05-28T10:31:35.496Z,1003.26
2019-05-28T10:32:35.484Z,1003.31
2019-05-28T10:33:35.458Z,1003.34
2019-05-28T10:34:35.436Z,1003.21
2019-05-28T10:35:35.436Z,1003.23
2019-05-28T10:36:37.753Z,1003.30
2019-05-28T10:37:35.405Z,1003.29
2019-05-28T10:38:35.349Z,1003.23
2019-05-28T10:39:35.332Z,1003.30
2019-05-28T10:40:35.334Z,1003.24
2019-05-28T10:41:35.296Z,1003.29
2019-05-28T10:42:35.329Z,1003.21
2019-05-28T10:43:35.249Z,1003.24
2019-05-28T10:44:35.228Z,1003.24
2019-05-28T10:45:35.230Z,1003.27
2019-05-28T10:46:35.186Z,1003.27
2019-05-28T10:47:35.177Z,1003.29
2019-05-28T10:48:35.153Z,1003.27
2019-05-28T10:49:35.122Z,1003.35
2019-05-28T10:50:35.125Z,1003.25
2019-05-28T10:51:35.092Z,1003.21
2019-05-28T10:52:35.067Z,1003.26
2019-05-28T10:53:35.047Z,1003.17
2019-05-28T10:54:35.076Z,1003.24
2019-05-28T10:55:35.023Z,1003.20
2019-05-28T10:56:34.978Z,1003.20
2019-05-28T10:57:34.960Z,1003.18
2019-05-28T10:58:34.946Z,1003.23
2019-05-28T10:59:34.918Z,1003.23
2019-05-28T11:00:34.929Z,1003.22
2019-05-28T11:01:34.906Z,1003.22
2019-05-28T11:02:37.449Z,1003.24
2019-05-28T11:03:34.843Z,1003.18
2019-05-28T11:04:34.817Z,1003.21
2019-05-28T11:05:34.828Z,1003.20
2019-05-28T11:06:48.877Z,1003.22
2019-05-28T11:07:34.758Z,1003.23
2019-05-28T11:08:34.733Z,1003.25
2019-05-28T11:09:34.713Z,1003.23
2019-05-28T11:10:34.718Z,1003.24
2019-05-28T11:11:34.678Z,1003.26
2019-05-28T11:12:34.657Z,1003.22
2019-05-28T11:13:34.626Z,1003.23
2019-05-28T11:14:34.611Z,1003.26
2019-05-28T11:15:34.611Z,1003.27
2019-05-28T11:16:34.574Z,1003.25
2019-05-28T11:17:34.551Z,1003.25
2019-05-28T11:18:34.526Z,1003.29
2019-05-28T11:19:34.505Z,1003.29
2019-05-28T11:20:34.509Z,1003.28
2019-05-28T11:21:34.465Z,1003.31
2019-05-28T11:22:34.441Z,1003.19
2019-05-28T11:23:34.436Z,1003.25
2019-05-28T11:24:34.404Z,1003.24
2019-05-28T11:25:34.400Z,1003.35
2019-05-28T11:26:34.356Z,1003.28
2019-05-28T11:27:34.344Z,1003.24
2019-05-28T11:28:34.316Z,1003.35
2019-05-28T11:29:34.297Z,1003.32
2019-05-28T11:30:34.328Z,1003.27
2019-05-28T11:31:34.261Z,1003.29
2019-05-28T11:32:34.231Z,1003.23
2019-05-28T11:33:34.214Z,1003.29
2019-05-28T11:34:34.193Z,1003.28
2019-05-28T11:35:34.192Z,1003.35
2019-05-28T11:36:34.149Z,1003.37
2019-05-28T11:37:34.133Z,1003.32
2019-05-28T11:38:34.113Z,1003.28
2019-05-28T11:39:34.089Z,1003.25
2019-05-28T11:40:34.099Z,1003.27
2019-05-28T11:41:41.870Z,1003.25
2019-05-28T11:42:34.024Z,1003.26
2019-05-28T11:43:34.005Z,1003.31
2019-05-28T11:44:33.994Z,1003.32
2019-05-28T11:45:33.966Z,1003.39
2019-05-28T11:46:33.974Z,1003.34
2019-05-28T11:47:33.925Z,1003.37
2019-05-28T11:48:33.926Z,1003.37
2019-05-28T11:49:33.883Z,1003.32
2019-05-28T11:50:33.892Z,1003.29
2019-05-28T11:51:33.889Z,1003.32
2019-05-28T11:52:33.817Z,1003.25
2019-05-28T11:53:36.791Z,1003.30
2019-05-28T11:54:33.799Z,1003.26
2019-05-28T11:55:33.765Z,1003.33
2019-05-28T11:56:34.090Z,1003.31
2019-05-28T11:57:33.718Z,1003.28
2019-05-28T11:58:33.711Z,1003.33
2019-05-28T11:59:33.683Z,1003.32
2019-05-28T12:00:33.654Z,1003.42
2019-05-28T12:01:35.433Z,1003.33
2019-05-28T12:02:33.610Z,1003.31
2019-05-28T12:03:33.611Z,1003.35
2019-05-28T12:04:33.571Z,1003.32